sensor_id;sensor_type;location;lat;lon;timestamp;P1;durP1;ratioP1;P2;durP2;ratioP2
65275;SDS011;51875;49.994;14.052;2024-01-30T00:00:19;51.45;;;16.13;;
65275;SDS011;51875;49.994;14.052;2024-01-30T00:01:35;49.05;;;16.30;;
65275;SDS011;51875;49.994;14.052;2024-01-30T00:02:54;53.35;;;19.35;;
65275;SDS011;51875;49.994;14.052;2024-01-30T00:04:12;43.83;;;16.60;;
65275;SDS011;51875;49.994;14.052;2024-01-30T00:05:28;52.47;;;17.30;;
65275;SDS011;51875;49.994;14.052;2024-01-30T00:06:47;50.17;;;15.57;;
65275;SDS011;51875;49.994;14.052;2024-01-30T00:08:04;52.40;;;16.67;;
65275;SDS011;51875;49.994;14.052;2024-01-30T00:09:21;49.47;;;16.45;;
65275;SDS011;51875;49.994;14.052;2024-01-30T00:10:37;53.90;;;17.33;;
65275;SDS011;51875;49.994;14.052;2024-01-30T00:11:53;36.00;;;12.05;;
65275;SDS011;51875;49.994;14.052;2024-01-30T00:13:09;54.60;;;18.35;;
65275;SDS011;51875;49.994;14.052;2024-01-30T00:14:25;46.80;;;16.45;;
65275;SDS011;51875;49.994;14.052;2024-01-30T00:15:41;45.95;;;14.77;;
65275;SDS011;51875;49.994;14.052;2024-01-30T00:16:57;49.10;;;17.33;;
65275;SDS011;51875;49.994;14.052;2024-01-30T00:18:13;56.65;;;18.55;;
65275;SDS011;51875;49.994;14.052;2024-01-30T00:19:29;56.72;;;19.92;;
65275;SDS011;51875;49.994;14.052;2024-01-30T00:20:45;52.28;;;18.75;;
65275;SDS011;51875;49.994;14.052;2024-01-30T00:22:01;57.20;;;20.25;;
65275;SDS011;51875;49.994;14.052;2024-01-30T00:23:17;54.75;;;18.27;;
65275;SDS011;51875;49.994;14.052;2024-01-30T00:24:33;53.40;;;19.50;;
65275;SDS011;51875;49.994;14.052;2024-01-30T00:25:49;57.05;;;21.77;;
65275;SDS011;51875;49.994;14.052;2024-01-30T00:27:06;51.83;;;19.67;;
65275;SDS011;51875;49.994;14.052;2024-01-30T00:28:23;56.03;;;20.08;;
65275;SDS011;51875;49.994;14.052;2024-01-30T00:29:39;53.72;;;19.60;;
65275;SDS011;51875;49.994;14.052;2024-01-30T00:30:55;54.53;;;19.77;;
65275;SDS011;51875;49.994;14.052;2024-01-30T00:32:11;56.20;;;19.70;;
65275;SDS011;51875;49.994;14.052;2024-01-30T00:33:27;46.17;;;18.02;;
65275;SDS011;51875;49.994;14.052;2024-01-30T00:34:43;56.80;;;21.55;;
65275;SDS011;51875;49.994;14.052;2024-01-30T00:35:59;52.25;;;19.15;;
65275;SDS011;51875;49.994;14.052;2024-01-30T00:37:15;47.55;;;18.20;;
65275;SDS011;51875;49.994;14.052;2024-01-30T00:38:31;50.22;;;18.38;;
65275;SDS011;51875;49.994;14.052;2024-01-30T00:39:47;50.78;;;17.95;;
65275;SDS011;51875;49.994;14.052;2024-01-30T00:41:03;50.13;;;18.50;;
65275;SDS011;51875;49.994;14.052;2024-01-30T00:42:21;54.88;;;19.33;;
65275;SDS011;51875;49.994;14.052;2024-01-30T00:43:39;56.42;;;20.60;;
65275;SDS011;51875;49.994;14.052;2024-01-30T00:44:55;53.05;;;19.17;;
65275;SDS011;51875;49.994;14.052;2024-01-30T00:46:11;55.85;;;18.38;;
65275;SDS011;51875;49.994;14.052;2024-01-30T00:47:30;56.42;;;19.35;;
65275;SDS011;51875;49.994;14.052;2024-01-30T00:48:48;55.25;;;19.65;;
65275;SDS011;51875;49.994;14.052;2024-01-30T00:50:04;53.38;;;20.80;;
65275;SDS011;51875;49.994;14.052;2024-01-30T00:51:21;56.42;;;20.42;;
65275;SDS011;51875;49.994;14.052;2024-01-30T00:52:37;66.10;;;21.35;;
65275;SDS011;51875;49.994;14.052;2024-01-30T00:53:54;56.88;;;20.17;;
65275;SDS011;51875;49.994;14.052;2024-01-30T00:55:10;59.03;;;20.60;;
65275;SDS011;51875;49.994;14.052;2024-01-30T00:56:26;58.42;;;19.40;;
65275;SDS011;51875;49.994;14.052;2024-01-30T00:57:43;57.42;;;20.00;;
65275;SDS011;51875;49.994;14.052;2024-01-30T00:58:59;53.55;;;18.80;;
65275;SDS011;51875;49.994;14.052;2024-01-30T01:00:15;72.50;;;20.40;;
65275;SDS011;51875;49.994;14.052;2024-01-30T01:01:35;55.00;;;19.88;;
65275;SDS011;51875;49.994;14.052;2024-01-30T01:02:51;53.55;;;19.90;;
65275;SDS011;51875;49.994;14.052;2024-01-30T01:04:07;62.83;;;20.27;;
65275;SDS011;51875;49.994;14.052;2024-01-30T01:05:24;59.33;;;18.88;;
65275;SDS011;51875;49.994;14.052;2024-01-30T01:06:40;66.28;;;19.23;;
65275;SDS011;51875;49.994;14.052;2024-01-30T01:07:59;61.03;;;18.05;;
65275;SDS011;51875;49.994;14.052;2024-01-30T01:09:15;70.10;;;17.85;;
65275;SDS011;51875;49.994;14.052;2024-01-30T01:10:31;63.47;;;16.70;;
65275;SDS011;51875;49.994;14.052;2024-01-30T01:11:47;51.08;;;16.58;;
65275;SDS011;51875;49.994;14.052;2024-01-30T01:13:03;60.25;;;14.73;;
65275;SDS011;51875;49.994;14.052;2024-01-30T01:14:19;35.05;;;11.77;;
65275;SDS011;51875;49.994;14.052;2024-01-30T01:15:35;29.17;;;10.93;;
65275;SDS011;51875;49.994;14.052;2024-01-30T01:16:51;25.48;;;11.02;;
65275;SDS011;51875;49.994;14.052;2024-01-30T01:18:07;34.60;;;13.02;;
65275;SDS011;51875;49.994;14.052;2024-01-30T01:19:23;36.83;;;13.23;;
65275;SDS011;51875;49.994;14.052;2024-01-30T01:20:39;33.58;;;13.75;;
65275;SDS011;51875;49.994;14.052;2024-01-30T01:21:55;35.67;;;13.20;;
65275;SDS011;51875;49.994;14.052;2024-01-30T01:23:11;41.17;;;13.82;;
65275;SDS011;51875;49.994;14.052;2024-01-30T01:24:27;41.33;;;14.40;;
65275;SDS011;51875;49.994;14.052;2024-01-30T01:25:43;33.75;;;14.45;;
65275;SDS011;51875;49.994;14.052;2024-01-30T01:26:59;36.67;;;13.43;;
65275;SDS011;51875;49.994;14.052;2024-01-30T01:28:16;40.78;;;13.82;;
65275;SDS011;51875;49.994;14.052;2024-01-30T01:29:32;38.35;;;12.57;;
65275;SDS011;51875;49.994;14.052;2024-01-30T01:30:48;37.38;;;13.73;;
65275;SDS011;51875;49.994;14.052;2024-01-30T01:32:04;35.47;;;11.73;;
65275;SDS011;51875;49.994;14.052;2024-01-30T01:33:21;48.70;;;15.38;;
65275;SDS011;51875;49.994;14.052;2024-01-30T01:34:37;38.80;;;14.10;;
65275;SDS011;51875;49.994;14.052;2024-01-30T01:35:53;47.47;;;14.63;;
65275;SDS011;51875;49.994;14.052;2024-01-30T01:37:09;42.00;;;13.82;;
65275;SDS011;51875;49.994;14.052;2024-01-30T01:38:25;34.38;;;11.60;;
65275;SDS011;51875;49.994;14.052;2024-01-30T01:39:41;38.25;;;14.45;;
65275;SDS011;51875;49.994;14.052;2024-01-30T01:40:57;51.90;;;15.82;;
65275;SDS011;51875;49.994;14.052;2024-01-30T01:42:13;48.50;;;15.45;;
65275;SDS011;51875;49.994;14.052;2024-01-30T01:43:29;46.33;;;16.15;;
65275;SDS011;51875;49.994;14.052;2024-01-30T01:44:45;30.08;;;12.05;;
65275;SDS011;51875;49.994;14.052;2024-01-30T01:46:01;39.95;;;15.15;;
65275;SDS011;51875;49.994;14.052;2024-01-30T01:47:18;43.35;;;16.27;;
65275;SDS011;51875;49.994;14.052;2024-01-30T01:48:34;48.85;;;17.27;;
65275;SDS011;51875;49.994;14.052;2024-01-30T01:49:51;43.85;;;15.77;;
65275;SDS011;51875;49.994;14.052;2024-01-30T01:51:07;42.83;;;16.02;;
65275;SDS011;51875;49.994;14.052;2024-01-30T01:52:24;51.97;;;16.42;;
65275;SDS011;51875;49.994;14.052;2024-01-30T01:53:40;45.63;;;16.85;;
65275;SDS011;51875;49.994;14.052;2024-01-30T01:54:57;45.53;;;16.13;;
65275;SDS011;51875;49.994;14.052;2024-01-30T01:56:14;49.30;;;16.88;;
65275;SDS011;51875;49.994;14.052;2024-01-30T01:57:31;44.17;;;15.68;;
65275;SDS011;51875;49.994;14.052;2024-01-30T01:58:47;41.40;;;14.95;;
65275;SDS011;51875;49.994;14.052;2024-01-30T02:00:05;47.67;;;17.45;;
65275;SDS011;51875;49.994;14.052;2024-01-30T02:01:22;49.20;;;17.10;;
65275;SDS011;51875;49.994;14.052;2024-01-30T02:02:40;55.95;;;17.73;;
65275;SDS011;51875;49.994;14.052;2024-01-30T02:03:58;55.22;;;16.35;;
65275;SDS011;51875;49.994;14.052;2024-01-30T02:05:15;44.97;;;17.88;;
65275;SDS011;51875;49.994;14.052;2024-01-30T02:06:31;57.30;;;17.52;;
65275;SDS011;51875;49.994;14.052;2024-01-30T02:07:49;56.78;;;17.38;;
65275;SDS011;51875;49.994;14.052;2024-01-30T02:09:06;49.60;;;16.52;;
65275;SDS011;51875;49.994;14.052;2024-01-30T02:10:22;55.83;;;17.70;;
65275;SDS011;51875;49.994;14.052;2024-01-30T02:11:38;57.42;;;17.63;;
65275;SDS011;51875;49.994;14.052;2024-01-30T02:12:56;55.33;;;16.67;;
65275;SDS011;51875;49.994;14.052;2024-01-30T02:14:12;59.88;;;18.20;;
65275;SDS011;51875;49.994;14.052;2024-01-30T02:15:28;82.57;;;19.35;;
65275;SDS011;51875;49.994;14.052;2024-01-30T02:16:44;67.45;;;18.08;;
65275;SDS011;51875;49.994;14.052;2024-01-30T02:18:00;58.08;;;16.73;;
65275;SDS011;51875;49.994;14.052;2024-01-30T02:19:17;58.78;;;17.90;;
65275;SDS011;51875;49.994;14.052;2024-01-30T02:20:33;64.93;;;17.50;;
65275;SDS011;51875;49.994;14.052;2024-01-30T02:21:50;61.70;;;16.55;;
65275;SDS011;51875;49.994;14.052;2024-01-30T02:23:07;43.33;;;14.18;;
65275;SDS011;51875;49.994;14.052;2024-01-30T02:24:26;50.45;;;12.98;;
65275;SDS011;51875;49.994;14.052;2024-01-30T02:25:42;50.92;;;14.70;;
65275;SDS011;51875;49.994;14.052;2024-01-30T02:27:01;41.85;;;14.77;;
65275;SDS011;51875;49.994;14.052;2024-01-30T02:28:17;57.72;;;14.43;;
65275;SDS011;51875;49.994;14.052;2024-01-30T02:29:33;46.97;;;14.00;;
65275;SDS011;51875;49.994;14.052;2024-01-30T02:30:49;42.22;;;13.07;;
65275;SDS011;51875;49.994;14.052;2024-01-30T02:32:05;43.35;;;12.60;;
65275;SDS011;51875;49.994;14.052;2024-01-30T02:33:21;44.95;;;12.20;;
65275;SDS011;51875;49.994;14.052;2024-01-30T02:34:37;55.13;;;13.32;;
65275;SDS011;51875;49.994;14.052;2024-01-30T02:35:54;75.30;;;14.18;;
65275;SDS011;51875;49.994;14.052;2024-01-30T02:37:10;47.78;;;12.57;;
65275;SDS011;51875;49.994;14.052;2024-01-30T02:38:26;46.95;;;13.02;;
65275;SDS011;51875;49.994;14.052;2024-01-30T02:39:42;64.38;;;14.25;;
65275;SDS011;51875;49.994;14.052;2024-01-30T02:40:58;51.90;;;15.00;;
65275;SDS011;51875;49.994;14.052;2024-01-30T02:42:14;58.45;;;14.13;;
65275;SDS011;51875;49.994;14.052;2024-01-30T02:43:30;61.55;;;14.48;;
65275;SDS011;51875;49.994;14.052;2024-01-30T02:44:46;64.38;;;13.38;;
65275;SDS011;51875;49.994;14.052;2024-01-30T02:46:03;41.10;;;13.07;;
65275;SDS011;51875;49.994;14.052;2024-01-30T02:47:19;45.67;;;13.90;;
65275;SDS011;51875;49.994;14.052;2024-01-30T02:48:35;61.60;;;14.15;;
65275;SDS011;51875;49.994;14.052;2024-01-30T02:49:51;39.95;;;13.35;;
65275;SDS011;51875;49.994;14.052;2024-01-30T02:51:07;35.38;;;12.80;;
65275;SDS011;51875;49.994;14.052;2024-01-30T02:52:23;39.28;;;14.10;;
65275;SDS011;51875;49.994;14.052;2024-01-30T02:53:39;37.22;;;11.88;;
65275;SDS011;51875;49.994;14.052;2024-01-30T02:54:55;36.33;;;13.52;;
65275;SDS011;51875;49.994;14.052;2024-01-30T02:56:11;40.78;;;13.82;;
65275;SDS011;51875;49.994;14.052;2024-01-30T02:57:29;38.03;;;13.55;;
65275;SDS011;51875;49.994;14.052;2024-01-30T02:58:44;39.63;;;14.68;;
65275;SDS011;51875;49.994;14.052;2024-01-30T03:00:02;52.75;;;17.50;;
65275;SDS011;51875;49.994;14.052;2024-01-30T03:01:19;48.70;;;15.90;;
65275;SDS011;51875;49.994;14.052;2024-01-30T03:02:36;53.40;;;17.55;;
65275;SDS011;51875;49.994;14.052;2024-01-30T03:03:52;56.28;;;17.20;;
65275;SDS011;51875;49.994;14.052;2024-01-30T03:05:08;63.28;;;19.20;;
65275;SDS011;51875;49.994;14.052;2024-01-30T03:06:24;45.20;;;15.63;;
65275;SDS011;51875;49.994;14.052;2024-01-30T03:07:40;51.45;;;16.40;;
65275;SDS011;51875;49.994;14.052;2024-01-30T03:08:56;51.67;;;17.15;;
65275;SDS011;51875;49.994;14.052;2024-01-30T03:10:12;56.25;;;19.20;;
65275;SDS011;51875;49.994;14.052;2024-01-30T03:11:28;48.88;;;17.08;;
65275;SDS011;51875;49.994;14.052;2024-01-30T03:12:44;49.58;;;15.95;;
65275;SDS011;51875;49.994;14.052;2024-01-30T03:14:01;49.42;;;17.30;;
65275;SDS011;51875;49.994;14.052;2024-01-30T03:15:17;46.28;;;15.80;;
65275;SDS011;51875;49.994;14.052;2024-01-30T03:16:33;56.95;;;16.98;;
65275;SDS011;51875;49.994;14.052;2024-01-30T03:17:51;68.85;;;17.38;;
65275;SDS011;51875;49.994;14.052;2024-01-30T03:19:07;49.97;;;15.82;;
65275;SDS011;51875;49.994;14.052;2024-01-30T03:20:24;45.88;;;14.50;;
65275;SDS011;51875;49.994;14.052;2024-01-30T03:21:40;48.15;;;15.73;;
65275;SDS011;51875;49.994;14.052;2024-01-30T03:22:56;50.83;;;15.23;;
65275;SDS011;51875;49.994;14.052;2024-01-30T03:24:12;42.90;;;13.85;;
65275;SDS011;51875;49.994;14.052;2024-01-30T03:25:29;55.05;;;14.68;;
65275;SDS011;51875;49.994;14.052;2024-01-30T03:26:44;49.28;;;14.93;;
65275;SDS011;51875;49.994;14.052;2024-01-30T03:28:00;53.05;;;15.13;;
65275;SDS011;51875;49.994;14.052;2024-01-30T03:29:16;48.28;;;15.45;;
65275;SDS011;51875;49.994;14.052;2024-01-30T03:30:34;46.40;;;15.80;;
65275;SDS011;51875;49.994;14.052;2024-01-30T03:31:50;47.80;;;16.02;;
65275;SDS011;51875;49.994;14.052;2024-01-30T03:33:06;38.92;;;14.02;;
65275;SDS011;51875;49.994;14.052;2024-01-30T03:34:22;43.70;;;15.02;;
65275;SDS011;51875;49.994;14.052;2024-01-30T03:35:38;45.20;;;15.48;;
65275;SDS011;51875;49.994;14.052;2024-01-30T03:36:54;41.13;;;14.50;;
65275;SDS011;51875;49.994;14.052;2024-01-30T03:38:10;44.58;;;16.10;;
65275;SDS011;51875;49.994;14.052;2024-01-30T03:39:26;48.60;;;16.42;;
65275;SDS011;51875;49.994;14.052;2024-01-30T03:40:42;41.30;;;14.60;;
65275;SDS011;51875;49.994;14.052;2024-01-30T03:41:58;41.92;;;15.45;;
65275;SDS011;51875;49.994;14.052;2024-01-30T03:43:14;43.47;;;14.63;;
65275;SDS011;51875;49.994;14.052;2024-01-30T03:44:30;45.78;;;15.48;;
65275;SDS011;51875;49.994;14.052;2024-01-30T03:45:46;39.75;;;13.73;;
65275;SDS011;51875;49.994;14.052;2024-01-30T03:47:02;38.70;;;14.55;;
65275;SDS011;51875;49.994;14.052;2024-01-30T03:48:18;37.50;;;13.05;;
65275;SDS011;51875;49.994;14.052;2024-01-30T03:49:35;35.75;;;12.35;;
65275;SDS011;51875;49.994;14.052;2024-01-30T03:50:51;40.65;;;14.05;;
65275;SDS011;51875;49.994;14.052;2024-01-30T03:52:07;37.08;;;13.15;;
65275;SDS011;51875;49.994;14.052;2024-01-30T03:53:23;31.50;;;11.18;;
65275;SDS011;51875;49.994;14.052;2024-01-30T03:54:39;37.35;;;13.25;;
65275;SDS011;51875;49.994;14.052;2024-01-30T03:55:55;31.42;;;11.70;;
65275;SDS011;51875;49.994;14.052;2024-01-30T03:57:11;32.35;;;11.65;;
65275;SDS011;51875;49.994;14.052;2024-01-30T03:58:28;31.85;;;12.10;;
65275;SDS011;51875;49.994;14.052;2024-01-30T03:59:44;30.45;;;10.73;;
65275;SDS011;51875;49.994;14.052;2024-01-30T04:01:00;37.35;;;12.07;;
65275;SDS011;51875;49.994;14.052;2024-01-30T04:02:16;38.30;;;12.68;;
65275;SDS011;51875;49.994;14.052;2024-01-30T04:03:33;53.85;;;13.73;;
65275;SDS011;51875;49.994;14.052;2024-01-30T04:04:49;36.20;;;13.80;;
65275;SDS011;51875;49.994;14.052;2024-01-30T04:06:05;36.42;;;12.00;;
65275;SDS011;51875;49.994;14.052;2024-01-30T04:07:21;59.03;;;15.02;;
65275;SDS011;51875;49.994;14.052;2024-01-30T04:08:37;51.78;;;12.60;;
65275;SDS011;51875;49.994;14.052;2024-01-30T04:09:53;62.08;;;13.68;;
65275;SDS011;51875;49.994;14.052;2024-01-30T04:11:09;38.58;;;10.65;;
65275;SDS011;51875;49.994;14.052;2024-01-30T04:12:25;43.80;;;11.75;;
65275;SDS011;51875;49.994;14.052;2024-01-30T04:13:41;34.70;;;11.45;;
65275;SDS011;51875;49.994;14.052;2024-01-30T04:14:58;45.70;;;13.00;;
65275;SDS011;51875;49.994;14.052;2024-01-30T04:16:21;42.85;;;11.63;;
65275;SDS011;51875;49.994;14.052;2024-01-30T04:17:37;31.40;;;9.77;;
65275;SDS011;51875;49.994;14.052;2024-01-30T04:18:54;31.42;;;10.93;;
65275;SDS011;51875;49.994;14.052;2024-01-30T04:20:15;41.33;;;12.15;;
65275;SDS011;51875;49.994;14.052;2024-01-30T04:21:32;37.30;;;12.10;;
65275;SDS011;51875;49.994;14.052;2024-01-30T04:22:48;41.88;;;12.75;;
65275;SDS011;51875;49.994;14.052;2024-01-30T04:24:04;36.17;;;11.80;;
65275;SDS011;51875;49.994;14.052;2024-01-30T04:25:20;37.53;;;11.35;;
65275;SDS011;51875;49.994;14.052;2024-01-30T04:26:36;32.92;;;12.30;;
65275;SDS011;51875;49.994;14.052;2024-01-30T04:27:52;37.75;;;11.35;;
65275;SDS011;51875;49.994;14.052;2024-01-30T04:29:09;33.28;;;11.77;;
65275;SDS011;51875;49.994;14.052;2024-01-30T04:30:25;33.63;;;10.70;;
65275;SDS011;51875;49.994;14.052;2024-01-30T04:31:41;38.15;;;12.32;;
65275;SDS011;51875;49.994;14.052;2024-01-30T04:32:57;36.78;;;12.38;;
65275;SDS011;51875;49.994;14.052;2024-01-30T04:34:13;36.17;;;11.57;;
65275;SDS011;51875;49.994;14.052;2024-01-30T04:35:29;43.33;;;12.27;;
65275;SDS011;51875;49.994;14.052;2024-01-30T04:36:45;34.50;;;11.75;;
65275;SDS011;51875;49.994;14.052;2024-01-30T04:38:01;43.35;;;12.32;;
65275;SDS011;51875;49.994;14.052;2024-01-30T04:39:17;37.42;;;12.60;;
65275;SDS011;51875;49.994;14.052;2024-01-30T04:40:33;34.58;;;12.13;;
65275;SDS011;51875;49.994;14.052;2024-01-30T04:41:49;38.47;;;12.95;;
65275;SDS011;51875;49.994;14.052;2024-01-30T04:43:06;44.45;;;12.95;;
65275;SDS011;51875;49.994;14.052;2024-01-30T04:44:22;36.28;;;12.05;;
65275;SDS011;51875;49.994;14.052;2024-01-30T04:45:39;39.33;;;12.13;;
65275;SDS011;51875;49.994;14.052;2024-01-30T04:46:55;56.72;;;13.68;;
65275;SDS011;51875;49.994;14.052;2024-01-30T04:48:14;47.95;;;13.10;;
65275;SDS011;51875;49.994;14.052;2024-01-30T04:49:30;44.30;;;14.70;;
65275;SDS011;51875;49.994;14.052;2024-01-30T04:50:46;41.03;;;13.10;;
65275;SDS011;51875;49.994;14.052;2024-01-30T04:52:02;55.70;;;13.80;;
65275;SDS011;51875;49.994;14.052;2024-01-30T04:53:18;41.65;;;13.00;;
65275;SDS011;51875;49.994;14.052;2024-01-30T04:54:35;54.60;;;15.15;;
65275;SDS011;51875;49.994;14.052;2024-01-30T04:55:51;72.28;;;14.23;;
65275;SDS011;51875;49.994;14.052;2024-01-30T04:57:07;60.25;;;15.02;;
65275;SDS011;51875;49.994;14.052;2024-01-30T04:58:25;58.95;;;13.73;;
65275;SDS011;51875;49.994;14.052;2024-01-30T04:59:42;56.63;;;14.88;;
65275;SDS011;51875;49.994;14.052;2024-01-30T05:00:58;54.50;;;13.00;;
65275;SDS011;51875;49.994;14.052;2024-01-30T05:02:14;50.70;;;14.13;;
65275;SDS011;51875;49.994;14.052;2024-01-30T05:03:32;45.10;;;13.38;;
65275;SDS011;51875;49.994;14.052;2024-01-30T05:04:49;49.22;;;14.32;;
65275;SDS011;51875;49.994;14.052;2024-01-30T05:06:06;43.03;;;13.90;;
65275;SDS011;51875;49.994;14.052;2024-01-30T05:07:22;46.63;;;15.93;;
65275;SDS011;51875;49.994;14.052;2024-01-30T05:08:38;46.13;;;14.05;;
65275;SDS011;51875;49.994;14.052;2024-01-30T05:09:54;46.20;;;14.20;;
65275;SDS011;51875;49.994;14.052;2024-01-30T05:11:10;48.47;;;15.65;;
65275;SDS011;51875;49.994;14.052;2024-01-30T05:12:27;57.78;;;14.43;;
65275;SDS011;51875;49.994;14.052;2024-01-30T05:13:43;38.90;;;13.85;;
65275;SDS011;51875;49.994;14.052;2024-01-30T05:14:59;62.92;;;13.57;;
65275;SDS011;51875;49.994;14.052;2024-01-30T05:16:15;51.42;;;13.70;;
65275;SDS011;51875;49.994;14.052;2024-01-30T05:17:31;43.13;;;13.90;;
65275;SDS011;51875;49.994;14.052;2024-01-30T05:18:49;38.88;;;13.82;;
65275;SDS011;51875;49.994;14.052;2024-01-30T05:20:05;35.10;;;12.80;;
65275;SDS011;51875;49.994;14.052;2024-01-30T05:21:21;41.47;;;13.68;;
65275;SDS011;51875;49.994;14.052;2024-01-30T05:22:39;47.88;;;13.65;;
65275;SDS011;51875;49.994;14.052;2024-01-30T05:24:00;41.55;;;13.50;;
65275;SDS011;51875;49.994;14.052;2024-01-30T05:25:16;38.60;;;12.57;;
65275;SDS011;51875;49.994;14.052;2024-01-30T05:26:32;42.28;;;14.43;;
65275;SDS011;51875;49.994;14.052;2024-01-30T05:27:48;32.47;;;11.98;;
65275;SDS011;51875;49.994;14.052;2024-01-30T05:29:05;41.65;;;13.38;;
65275;SDS011;51875;49.994;14.052;2024-01-30T05:30:21;45.72;;;14.00;;
65275;SDS011;51875;49.994;14.052;2024-01-30T05:31:37;47.70;;;13.18;;
65275;SDS011;51875;49.994;14.052;2024-01-30T05:32:53;38.78;;;12.88;;
65275;SDS011;51875;49.994;14.052;2024-01-30T05:34:11;40.33;;;13.23;;
65275;SDS011;51875;49.994;14.052;2024-01-30T05:35:27;50.35;;;15.05;;
65275;SDS011;51875;49.994;14.052;2024-01-30T05:36:44;47.42;;;13.25;;
65275;SDS011;51875;49.994;14.052;2024-01-30T05:38:00;49.42;;;12.85;;
65275;SDS011;51875;49.994;14.052;2024-01-30T05:39:16;56.22;;;13.20;;
65275;SDS011;51875;49.994;14.052;2024-01-30T05:40:32;44.53;;;13.27;;
65275;SDS011;51875;49.994;14.052;2024-01-30T05:41:48;47.70;;;12.50;;
65275;SDS011;51875;49.994;14.052;2024-01-30T05:43:04;47.47;;;13.68;;
65275;SDS011;51875;49.994;14.052;2024-01-30T05:44:21;44.10;;;12.85;;
65275;SDS011;51875;49.994;14.052;2024-01-30T05:45:37;60.22;;;13.07;;
65275;SDS011;51875;49.994;14.052;2024-01-30T05:46:53;46.83;;;13.68;;
65275;SDS011;51875;49.994;14.052;2024-01-30T05:48:10;53.15;;;13.75;;
65275;SDS011;51875;49.994;14.052;2024-01-30T05:49:27;42.75;;;13.43;;
65275;SDS011;51875;49.994;14.052;2024-01-30T05:50:44;49.53;;;13.82;;
65275;SDS011;51875;49.994;14.052;2024-01-30T05:52:02;47.25;;;14.15;;
65275;SDS011;51875;49.994;14.052;2024-01-30T05:53:18;56.70;;;13.27;;
65275;SDS011;51875;49.994;14.052;2024-01-30T05:54:34;50.15;;;13.80;;
65275;SDS011;51875;49.994;14.052;2024-01-30T05:55:51;37.38;;;11.73;;
65275;SDS011;51875;49.994;14.052;2024-01-30T05:57:07;33.50;;;11.93;;
65275;SDS011;51875;49.994;14.052;2024-01-30T05:58:24;40.35;;;13.82;;
65275;SDS011;51875;49.994;14.052;2024-01-30T05:59:44;47.00;;;13.75;;
65275;SDS011;51875;49.994;14.052;2024-01-30T06:01:01;69.43;;;14.73;;
65275;SDS011;51875;49.994;14.052;2024-01-30T06:02:17;48.17;;;12.85;;
65275;SDS011;51875;49.994;14.052;2024-01-30T06:03:33;46.45;;;14.32;;
65275;SDS011;51875;49.994;14.052;2024-01-30T06:04:49;41.40;;;13.15;;
65275;SDS011;51875;49.994;14.052;2024-01-30T06:06:07;39.90;;;14.23;;
65275;SDS011;51875;49.994;14.052;2024-01-30T06:07:23;58.58;;;13.70;;
65275;SDS011;51875;49.994;14.052;2024-01-30T06:08:39;63.67;;;14.68;;
65275;SDS011;51875;49.994;14.052;2024-01-30T06:09:56;46.38;;;13.23;;
65275;SDS011;51875;49.994;14.052;2024-01-30T06:11:12;53.83;;;14.88;;
65275;SDS011;51875;49.994;14.052;2024-01-30T06:12:28;49.53;;;14.65;;
65275;SDS011;51875;49.994;14.052;2024-01-30T06:13:44;36.40;;;14.13;;
65275;SDS011;51875;49.994;14.052;2024-01-30T06:15:00;42.08;;;14.45;;
65275;SDS011;51875;49.994;14.052;2024-01-30T06:16:17;48.47;;;13.93;;
65275;SDS011;51875;49.994;14.052;2024-01-30T06:17:33;51.97;;;14.27;;
65275;SDS011;51875;49.994;14.052;2024-01-30T06:18:49;43.22;;;14.52;;
65275;SDS011;51875;49.994;14.052;2024-01-30T06:20:05;47.78;;;15.13;;
65275;SDS011;51875;49.994;14.052;2024-01-30T06:21:22;40.22;;;15.13;;
65275;SDS011;51875;49.994;14.052;2024-01-30T06:22:41;41.17;;;14.50;;
65275;SDS011;51875;49.994;14.052;2024-01-30T06:23:57;38.08;;;14.50;;
65275;SDS011;51875;49.994;14.052;2024-01-30T06:25:13;36.13;;;13.93;;
65275;SDS011;51875;49.994;14.052;2024-01-30T06:26:30;39.17;;;15.20;;
65275;SDS011;51875;49.994;14.052;2024-01-30T06:27:46;44.03;;;14.70;;
65275;SDS011;51875;49.994;14.052;2024-01-30T06:29:02;36.25;;;14.05;;
65275;SDS011;51875;49.994;14.052;2024-01-30T06:30:18;33.75;;;12.50;;
65275;SDS011;51875;49.994;14.052;2024-01-30T06:31:39;40.58;;;14.18;;
65275;SDS011;51875;49.994;14.052;2024-01-30T06:32:56;40.85;;;13.90;;
65275;SDS011;51875;49.994;14.052;2024-01-30T06:34:12;47.58;;;14.90;;
65275;SDS011;51875;49.994;14.052;2024-01-30T06:35:29;43.47;;;13.65;;
65275;SDS011;51875;49.994;14.052;2024-01-30T06:36:45;43.83;;;13.65;;
65275;SDS011;51875;49.994;14.052;2024-01-30T06:38:01;32.40;;;11.00;;
65275;SDS011;51875;49.994;14.052;2024-01-30T06:39:17;40.38;;;13.20;;
65275;SDS011;51875;49.994;14.052;2024-01-30T06:40:34;38.03;;;11.43;;
65275;SDS011;51875;49.994;14.052;2024-01-30T06:41:49;67.38;;;14.10;;
65275;SDS011;51875;49.994;14.052;2024-01-30T06:43:05;37.10;;;12.93;;
65275;SDS011;51875;49.994;14.052;2024-01-30T06:44:23;36.78;;;12.38;;
65275;SDS011;51875;49.994;14.052;2024-01-30T06:45:39;46.35;;;13.43;;
65275;SDS011;51875;49.994;14.052;2024-01-30T06:46:55;45.58;;;13.20;;
65275;SDS011;51875;49.994;14.052;2024-01-30T06:48:11;41.35;;;13.65;;
65275;SDS011;51875;49.994;14.052;2024-01-30T06:49:28;46.78;;;13.57;;
65275;SDS011;51875;49.994;14.052;2024-01-30T06:50:43;54.13;;;14.55;;
65275;SDS011;51875;49.994;14.052;2024-01-30T06:52:01;36.33;;;13.65;;
65275;SDS011;51875;49.994;14.052;2024-01-30T06:53:17;45.08;;;13.40;;
65275;SDS011;51875;49.994;14.052;2024-01-30T06:54:33;47.28;;;12.93;;
65275;SDS011;51875;49.994;14.052;2024-01-30T06:55:49;22.75;;;9.73;;
65275;SDS011;51875;49.994;14.052;2024-01-30T06:57:05;46.95;;;14.43;;
65275;SDS011;51875;49.994;14.052;2024-01-30T06:58:24;29.35;;;10.57;;
65275;SDS011;51875;49.994;14.052;2024-01-30T06:59:41;50.90;;;14.45;;
65275;SDS011;51875;49.994;14.052;2024-01-30T07:00:59;38.20;;;12.85;;
65275;SDS011;51875;49.994;14.052;2024-01-30T07:02:15;46.28;;;13.68;;
65275;SDS011;51875;49.994;14.052;2024-01-30T07:03:31;44.10;;;12.60;;
65275;SDS011;51875;49.994;14.052;2024-01-30T07:04:47;41.15;;;11.40;;
65275;SDS011;51875;49.994;14.052;2024-01-30T07:06:03;36.97;;;11.63;;
65275;SDS011;51875;49.994;14.052;2024-01-30T07:07:19;42.92;;;13.70;;
65275;SDS011;51875;49.994;14.052;2024-01-30T07:08:35;44.97;;;13.27;;
65275;SDS011;51875;49.994;14.052;2024-01-30T07:09:51;38.03;;;12.98;;
65275;SDS011;51875;49.994;14.052;2024-01-30T07:11:17;34.65;;;12.50;;
65275;SDS011;51875;49.994;14.052;2024-01-30T07:12:37;29.15;;;11.48;;
65275;SDS011;51875;49.994;14.052;2024-01-30T07:13:54;46.25;;;14.75;;
65275;SDS011;51875;49.994;14.052;2024-01-30T07:15:11;26.42;;;10.45;;
65275;SDS011;51875;49.994;14.052;2024-01-30T07:16:27;28.80;;;11.60;;
65275;SDS011;51875;49.994;14.052;2024-01-30T07:17:43;39.58;;;14.80;;
65275;SDS011;51875;49.994;14.052;2024-01-30T07:18:59;35.60;;;11.10;;
65275;SDS011;51875;49.994;14.052;2024-01-30T07:20:15;49.53;;;15.00;;